MSC Krystal — 3EPZ4 — position and weather

sailwx.info

Track history (hours):
 
Tides and Currents Weather Stations Pressure Air Temp Water Temp Dewpoint Dewpoint Depression Visibility Wind Speed Wind Dir Waves Ship Positions

MSC Krystal

Last reported at 2018-Jul-21 17:28 UTC. Time now 2018-Jul-21 17:35 UTC.
Position N 51°24' E 002°37'.

Length 277 m; draft 9.6 m.

Type: Ship (hazmat cat A). MMSI: 356330000.

Date/timePositionNaut miles runAvg speedWind from/ knotsBaromVisibWave heightAir tempDewpointWater temp
2018-Jul-21 17:28N 51°24' E 002°37'0 0.0
2018-Jul-21 16:58N 51°24' E 002°37'0 0.0
2018-Jul-21 16:28N 51°24' E 002°37'0 0.0
2018-Jul-21 15:58N 51°24' E 002°37'0 0.0
2018-Jul-21 15:28N 51°24' E 002°37'0 0.0
2018-Jul-21 14:58N 51°24' E 002°37'0 0.0
2018-Jul-21 14:28N 51°24' E 002°37'0 0.0
2018-Jul-21 13:25N 51°24' E 002°37'0 0.0
2018-Jul-21 12:58N 51°24' E 002°37'0 0.0
2018-Jul-21 12:28N 51°24' E 002°37'0 0.1
2018-Jul-21 11:58N 51°24' E 002°37'0 0.1
2018-Jul-21 11:25N 51°24' E 002°37'0 0.1
2018-Jul-21 10:58N 51°24' E 002°37'0 0.1
2018-Jul-21 10:28N 51°24' E 002°37'0 0.1
2018-Jul-21 09:58N 51°24' E 002°37'0 0.1
2018-Jul-21 09:28N 51°24' E 002°37'0 0.0
2018-Jul-21 08:58N 51°24' E 002°37'0 0.0
2018-Jul-21 08:28N 51°24' E 002°37'0 0.0
2018-Jul-21 07:58N 51°24' E 002°37'0 0.0
2018-Jul-21 07:28N 51°24' E 002°37'0 0.0
2018-Jul-21 06:58N 51°24' E 002°37'0 0.1
2018-Jul-21 06:28N 51°24' E 002°37'0 0.1
2018-Jul-21 05:58N 51°24' E 002°37'0 0.1
2018-Jul-21 05:28N 51°24' E 002°37'0 0.1
2018-Jul-21 04:58N 51°24' E 002°37'0 0.1
2018-Jul-21 04:28N 51°24' E 002°37'0 0.1
2018-Jul-21 03:58N 51°24' E 002°37'0 0.0
2018-Jul-21 03:28N 51°24' E 002°37'0 0.0
2018-Jul-21 02:58N 51°24' E 002°37'0 0.2
2018-Jul-21 02:30N 51°24' E 002°37'3 6.0
2018-Jul-21 02:00N 51°22' E 002°33'5 9.9
2018-Jul-21 01:30N 51°21' E 002°25'3 6.3
2018-Jul-21 01:00N 51°19' E 002°21'3 6.6
2018-Jul-21 00:30N 51°19' E 002°16'4 7.6
2018-Jul-21 00:00N 51°19' E 002°10'4 7.8
2018-Jul-20 23:30N 51°21' E 002°04'510.0
2018-Jul-20 23:00N 51°24' E 001°58'611.7
2018-Jul-20 22:30N 51°29' E 001°52'5 9.9
2018-Jul-20 22:00N 51°33' E 001°49'4 7.2
2018-Jul-20 21:30N 51°36' E 001°47'3 6.9
2018-Jul-20 21:00N 51°40' E 001°45'3 6.8
2018-Jul-20 20:30N 51°43' E 001°45'3 6.9
2018-Jul-20 20:00N 51°47' E 001°44'3 6.9
2018-Jul-20 19:30N 51°50' E 001°42'4 8.0
2018-Jul-20 19:00N 51°52' E 001°37'5 9.0
2018-Jul-20 18:31N 51°56' E 001°33'816.8
2018-Jul-20 18:01N 51°56' E 001°19'2 4.1
2018-Jul-20 17:30N 51°58' E 001°18'0 0.0
2018-Jul-20 16:57N 51°58' E 001°18'0 0.0
2018-Jul-20 16:30N 51°58' E 001°18'0 0.0
2018-Jul-20 16:00N 51°58' E 001°18'0 0.0
2018-Jul-20 15:30N 51°58' E 001°18'0 0.0
2018-Jul-20 15:00N 51°58' E 001°18'0 0.0
2018-Jul-20 14:30N 51°58' E 001°18'0 0.0
2018-Jul-20 14:00N 51°58' E 001°18'0 0.0
2018-Jul-20 13:30N 51°58' E 001°18'0 0.0
2018-Jul-20 13:00N 51°58' E 001°18'0 0.0
2018-Jul-20 12:30N 51°58' E 001°18'0 0.0
2018-Jul-20 12:00N 51°58' E 001°18'0 0.0
2018-Jul-20 11:30N 51°58' E 001°18'0 0.0
2018-Jul-20 11:00N 51°58' E 001°18'0 0.0
2018-Jul-20 10:30N 51°58' E 001°18'0 0.0
2018-Jul-20 09:57N 51°58' E 001°18'0 0.0
2018-Jul-20 09:30N 51°58' E 001°18'0 0.0
2018-Jul-20 09:00N 51°58' E 001°18'0 0.0
2018-Jul-20 08:30N 51°58' E 001°18'0 0.0
2018-Jul-20 08:00N 51°58' E 001°18'0 0.0
2018-Jul-20 07:30N 51°58' E 001°18'0 0.0
2018-Jul-20 07:00N 51°58' E 001°18'0 0.0
2018-Jul-20 06:30N 51°58' E 001°18'0 0.0
2018-Jul-20 06:00N 51°58' E 001°18'0 0.0
2018-Jul-20 05:30N 51°58' E 001°18'0 0.0
2018-Jul-20 05:00N 51°58' E 001°18'0 0.0
2018-Jul-20 04:30N 51°58' E 001°18'0 0.0
2018-Jul-20 04:00N 51°58' E 001°18'0 0.0
2018-Jul-20 03:30N 51°58' E 001°18'0 0.0
2018-Jul-20 03:00N 51°58' E 001°18'0 0.0
2018-Jul-20 02:30N 51°58' E 001°18'0 0.0
2018-Jul-20 02:00N 51°58' E 001°18'0 0.0
2018-Jul-20 01:30N 51°58' E 001°18'0 0.1
2018-Jul-20 01:00N 51°58' E 001°18'2 3.6
2018-Jul-20 00:30N 51°56' E 001°19'613.0
2018-Jul-20 00:01N 51°56' E 001°29'713.1
2018-Jul-19 23:30N 51°52' E 001°37'713.0
2018-Jul-19 23:00N 51°51' E 001°47'918.2
2018-Jul-19 22:30N 51°52' E 002°02'918.9
2018-Jul-19 22:00N 51°57' E 002°15'1019.1
2018-Jul-19 21:30N 52°03' E 002°27'919.0
2018-Jul-19 21:00N 52°09' E 002°39'918.8
2018-Jul-19 20:30N 52°15' E 002°51'918.5
2018-Jul-19 20:00N 52°21' E 003°03'713.9
2018-Jul-19 19:30N 52°24' E 003°12'611.5
2018-Jul-19 19:00N 52°28' E 003°20'611.6
2018-Jul-19 18:30N 52°33' E 003°25'612.1
2018-Jul-19 18:00N 52°38' E 003°31'612.7
2018-Jul-19 17:30N 52°43' E 003°38'713.3
2018-Jul-19 17:00N 52°48' E 003°45'713.6
2018-Jul-19 16:30N 52°53' E 003°52'713.9
2018-Jul-19 16:00N 52°58' E 003°60'714.1
2018-Jul-19 15:30N 53°03' E 004°09'713.9
2018-Jul-19 14:59N 53°08' E 004°18'713.8
2018-Jul-19 14:30N 53°13' E 004°25'1313.5
2018-Jul-19 13:30N 53°25' E 004°34'612.2
2018-Jul-19 13:00N 53°30' E 004°41'612.3
2018-Jul-19 12:30N 53°32' E 004°50'612.1
2018-Jul-19 12:00N 53°34' E 004°59'611.8
2018-Jul-19 11:30N 53°36' E 005°09'611.7
2018-Jul-19 11:00N 53°38' E 005°18'611.7
2018-Jul-19 10:30N 53°40' E 005°27'611.9
2018-Jul-19 10:00N 53°42' E 005°37'612.0
2018-Jul-19 09:30N 53°44' E 005°47'713.7
2018-Jul-19 09:00N 53°46' E 005°58'816.6
2018-Jul-19 08:30N 53°48' E 006°11'1117.1
2018-Jul-19 07:52N 53°51' E 006°29'1417.2
2018-Jul-19 07:03N 53°55' E 006°52'117.2
2018-Jul-19 06:59N 53°55' E 006°54'817.0
2018-Jul-19 06:30N 53°57' E 007°07'816.8
2018-Jul-19 06:00N 53°58' E 007°21'816.3
2018-Jul-19 05:30N 53°59' E 007°35'713.8
2018-Jul-19 04:59N 53°55' E 007°44'613.4
2018-Jul-19 04:30N 53°52' E 007°54'916.9
2018-Jul-19 04:00N 53°49' E 008°07'817.0
2018-Jul-19 03:30N 53°43' E 008°18'815.8
2018-Jul-19 03:01N 53°38' E 008°28'4 8.2
2018-Jul-19 02:31N 53°35' E 008°32'0 0.0
2018-Jul-19 02:00N 53°35' E 008°32'0 0.0
2018-Jul-19 01:31N 53°35' E 008°32'0 0.0
2018-Jul-19 01:00N 53°35' E 008°32'0 0.0
2018-Jul-19 00:31N 53°35' E 008°32'0 0.0
2018-Jul-19 00:01N 53°35' E 008°32'0 0.0
2018-Jul-18 23:31N 53°35' E 008°32'0 0.0
2018-Jul-18 23:01N 53°35' E 008°32'0 0.0
2018-Jul-18 22:30N 53°35' E 008°32'0 0.0
2018-Jul-18 22:01N 53°35' E 008°32'0 0.0
2018-Jul-18 21:31N 53°35' E 008°32'0 0.0
2018-Jul-18 21:01N 53°35' E 008°32'0 0.0
2018-Jul-18 20:31N 53°35' E 008°32'0 0.0
2018-Jul-18 20:00N 53°35' E 008°32'0 0.0
2018-Jul-18 19:31N 53°35' E 008°32'0 0.0
2018-Jul-18 19:01N 53°35' E 008°32'0 0.0
2018-Jul-18 18:31N 53°35' E 008°32'0 0.0
2018-Jul-18 18:01N 53°35' E 008°32'0 0.0
2018-Jul-18 17:31N 53°35' E 008°32'0 0.0
2018-Jul-18 17:01N 53°35' E 008°32'0 0.0
2018-Jul-18 16:30N 53°35' E 008°32'0 0.0
2018-Jul-18 16:01N 53°35' E 008°32'0 0.0
2018-Jul-18 15:31N 53°35' E 008°32'0 0.0
2018-Jul-18 15:01N 53°35' E 008°32'0 0.0
2018-Jul-18 14:31N 53°35' E 008°32'0 0.0
2018-Jul-18 13:31N 53°35' E 008°32'0 0.0
2018-Jul-18 13:01N 53°35' E 008°32'0 0.0
2018-Jul-18 12:31N 53°35' E 008°32'0 0.0
2018-Jul-18 12:01N 53°35' E 008°32'0 0.0
2018-Jul-18 11:28N 53°35' E 008°32'0 0.0
2018-Jul-18 10:30N 53°35' E 008°32'0 0.0
2018-Jul-18 10:01N 53°35' E 008°32'0 0.0
2018-Jul-18 09:28N 53°35' E 008°32'0 0.0
2018-Jul-18 09:01N 53°35' E 008°32'0 0.0
2018-Jul-18 08:31N 53°35' E 008°32'0 0.0
2018-Jul-18 08:01N 53°35' E 008°32'0 0.0
2018-Jul-18 07:31N 53°35' E 008°32'0 0.0
2018-Jul-18 07:01N 53°35' E 008°32'0 0.0
2018-Jul-18 06:31N 53°35' E 008°32'0 0.0
2018-Jul-18 06:01N 53°35' E 008°32'0 0.0
2018-Jul-18 05:31N 53°35' E 008°32'0 0.0
2018-Jul-18 05:01N 53°35' E 008°32'1 1.8
2018-Jul-18 04:30N 53°35' E 008°31'5 9.9
2018-Jul-18 04:00N 53°39' E 008°25'714.3
2018-Jul-18 03:30N 53°43' E 008°16'715.0
2018-Jul-18 03:00N 53°49' E 008°07'816.3
2018-Jul-18 02:30N 53°52' E 007°54'5 9.0
2018-Jul-18 02:00N 53°54' E 007°48'1 2.4
2018-Jul-18 01:28N 53°55' E 007°49'0 0.0
2018-Jul-18 00:55N 53°55' E 007°49'0 0.1
2018-Jul-18 00:28N 53°55' E 007°49'0 0.0
2018-Jul-17 23:55N 53°55' E 007°49'0 0.1
2018-Jul-17 23:28N 53°55' E 007°49'0 0.0
2018-Jul-17 22:55N 53°55' E 007°49'0 0.0
2018-Jul-17 22:25N 53°55' E 007°49'0 0.0
2018-Jul-17 21:22N 53°55' E 007°49'0 0.0
2018-Jul-17 20:52N 53°55' E 007°49'0 0.0
2018-Jul-17 20:28N 53°55' E 007°49'0 0.1
2018-Jul-17 19:49N 53°55' E 007°49'0 0.3
2018-Jul-17 19:25N 53°55' E 007°49'0 0.1
2018-Jul-17 18:52N 53°55' E 007°49'0 0.0
2018-Jul-17 18:16N 53°55' E 007°49'0 0.1
2018-Jul-17 17:16N 53°55' E 007°49'0 0.1
2018-Jul-17 16:55N 53°55' E 007°49'0 0.1
2018-Jul-17 16:28N 53°55' E 007°49'0 0.0
2018-Jul-17 15:28N 53°55' E 007°49'0 0.0
2018-Jul-17 13:34N 53°55' E 007°49'0 0.0
2018-Jul-17 13:19N 53°55' E 007°49'0 0.0
2018-Jul-17 12:58N 53°55' E 007°49'0 0.0
2018-Jul-17 10:55N 53°55' E 007°49'0 0.0
2018-Jul-17 09:46N 53°55' E 007°49'0 0.1
2018-Jul-17 09:19N 53°55' E 007°49'0 0.3
2018-Jul-17 08:58N 53°55' E 007°49'0 0.2
2018-Jul-17 08:28N 53°55' E 007°49'0 0.0
2018-Jul-17 07:55N 53°55' E 007°49'0 0.0
2018-Jul-17 07:28N 53°55' E 007°49'0 0.1
2018-Jul-17 07:01N 53°55' E 007°49'3 6.0
2018-Jul-17 06:30N 53°56' E 007°44'713.6
2018-Jul-17 06:00N 53°55' E 007°33'612.9
2018-Jul-17 05:30N 53°53' E 007°22'5 9.8
2018-Jul-17 05:00N 53°52' E 007°14'5 9.8
2018-Jul-17 04:30N 53°51' E 007°06'5 9.5
2018-Jul-17 04:00N 53°50' E 006°58'5 9.7
2018-Jul-17 03:28N 53°49' E 006°49'5 9.6
2018-Jul-17 02:57N 53°47' E 006°41'4 9.6
2018-Jul-17 02:30N 53°46' E 006°34'4 9.0
2018-Jul-17 02:00N 53°45' E 006°26'4 8.8
2018-Jul-17 01:30N 53°44' E 006°19'5 9.1
2018-Jul-17 00:59N 53°43' E 006°12'8 9.4
2018-Jul-17 00:05N 53°40' E 005°58'13 9.7
2018-Jul-16 22:44N 53°36' E 005°37'3 9.9
2018-Jul-16 22:24N 53°35' E 005°32'4 9.9
2018-Jul-16 21:59N 53°34' E 005°26'510.0
2018-Jul-16 21:31N 53°32' E 005°18'5 9.9
2018-Jul-16 21:00N 53°30' E 005°10'510.1
2018-Jul-16 20:30N 53°28' E 005°02'510.1
2018-Jul-16 20:01N 53°27' E 004°54'510.0
2018-Jul-16 19:30N 53°25' E 004°46'5 9.7
2018-Jul-16 19:00N 53°22' E 004°41'510.5
2018-Jul-16 18:31N 53°17' E 004°37'611.2
2018-Jul-16 18:00N 53°12' E 004°32'612.4
2018-Jul-16 17:30N 53°06' E 004°28'611.9
2018-Jul-16 17:00N 53°01' E 004°23'611.7
2018-Jul-16 16:30N 52°56' E 004°18'611.4
2018-Jul-16 16:00N 52°51' E 004°14'511.0
2018-Jul-16 15:30N 52°47' E 004°08'611.3
2018-Jul-16 15:00N 52°43' E 004°02'612.7
2018-Jul-16 14:30N 52°38' E 003°54'712.6
2018-Jul-16 13:59N 52°33' E 003°47'612.3
2018-Jul-16 13:31N 52°29' E 003°40'612.2
2018-Jul-16 13:00N 52°25' E 003°33'612.0
2018-Jul-16 12:30N 52°21' E 003°26'611.8
2018-Jul-16 12:00N 52°16' E 003°20'611.6
2018-Jul-16 11:30N 52°12' E 003°13'612.5
2018-Jul-16 11:00N 52°08' E 003°06'612.3
2018-Jul-16 10:31N 52°03' E 002°59'612.4
2018-Jul-16 10:01N 51°59' E 002°52'612.4
2018-Jul-16 09:30N 51°54' E 002°46'612.7
2018-Jul-16 09:00N 51°49' E 002°40'613.0
2018-Jul-16 08:30N 51°43' E 002°34'612.9
2018-Jul-16 08:01N 51°39' E 002°27'713.3
2018-Jul-16 07:30N 51°34' E 002°20'713.8
2018-Jul-16 07:00N 51°28' E 002°13'713.6
2018-Jul-16 06:31N 51°22' E 002°08'714.3
2018-Jul-16 06:00N 51°15' E 002°06'815.5
2018-Jul-16 05:31N 51°10' E 001°56'815.8
2018-Jul-16 05:00N 51°07' E 001°45'815.2
2018-Jul-16 04:30N 51°02' E 001°36'918.4
2018-Jul-16 04:00N 50°54' E 001°29'1019.4
2018-Jul-16 03:31N 50°45' E 001°24'918.5
2018-Jul-16 03:01N 50°38' E 001°15'918.5
2018-Jul-16 02:31N 50°32' E 001°04'917.8
2018-Jul-16 02:00N 50°28' E 000°51'918.1
2018-Jul-16 01:30N 50°26' E 000°37'918.2
2018-Jul-16 01:01N 50°24' E 000°23'918.6
2018-Jul-16 00:31N 50°21' E 000°09'1019.1
2018-Jul-16 00:00N 50°19' W 000°05'1019.8
2018-Jul-15 23:30N 50°17' W 000°21'1020.6
2018-Jul-15 23:00N 50°14' W 000°36'1121.0
2018-Jul-15 22:30N 50°11' W 000°52'1121.2
2018-Jul-15 22:00N 50°08' W 001°07'1121.5
2018-Jul-15 21:30N 50°05' W 001°24'1121.7
2018-Jul-15 21:01N 50°02' W 001°40'1121.7
2018-Jul-15 20:31N 49°59' W 001°56'1121.0
2018-Jul-15 20:00N 49°57' W 002°12'1019.7
2018-Jul-15 19:30N 49°54' W 002°27'1019.1
2018-Jul-15 19:00N 49°52' W 002°41'918.6
2018-Jul-15 18:30N 49°50' W 002°55'918.2
2018-Jul-15 18:00N 49°49' W 003°09'917.8
2018-Jul-15 17:30N 49°47' W 003°23'917.4
2018-Jul-15 17:00N 49°47' W 003°36'917.3
2018-Jul-15 16:30N 49°46' W 003°50'917.0
2018-Jul-15 16:00N 49°45' W 004°03'816.8
2018-Jul-15 15:30N 49°44' W 004°16'816.7
2018-Jul-15 15:00N 49°43' W 004°28'816.6
2018-Jul-15 14:30N 49°43' W 004°41'2216.1
2018-Jul-15 13:08N 49°41' W 005°15'2216.1
2018-Jul-15 11:46N 49°39' W 005°49'416.6
2018-Jul-15 11:31N 49°38' W 005°56'816.6
2018-Jul-15 11:01N 49°38' W 006°09'816.7
2018-Jul-15 10:30N 49°38' W 006°22'1017.1
2018-Jul-15 09:56N 49°38' W 006°37'3517.6
2018-Jul-15 07:58N 49°41' W 007°30'  
Track history (hours):
 
Tides and Currents Weather Stations Pressure Air Temp Water Temp Dewpoint Dewpoint Depression Visibility Wind Speed Wind Dir Waves Ship Positions

MSC Krystal

Last reported at 2018-Jul-21 17:28 UTC. Time now 2018-Jul-21 17:35 UTC.
Position N 51°24' E 002°37'.

Length 277 m; draft 9.6 m.

Type: Ship (hazmat cat A). MMSI: 356330000.

Date/timePositionNaut miles runAvg speedWind from/ knotsBaromVisibWave heightAir tempDewpointWater temp
2018-Jul-21 17:28N 51°24' E 002°37'0 0.0
2018-Jul-21 16:58N 51°24' E 002°37'0 0.0
2018-Jul-21 16:28N 51°24' E 002°37'0 0.0
2018-Jul-21 15:58N 51°24' E 002°37'0 0.0
2018-Jul-21 15:28N 51°24' E 002°37'0 0.0
2018-Jul-21 14:58N 51°24' E 002°37'0 0.0
2018-Jul-21 14:28N 51°24' E 002°37'0 0.0
2018-Jul-21 13:25N 51°24' E 002°37'0 0.0
2018-Jul-21 12:58N 51°24' E 002°37'0 0.0
2018-Jul-21 12:28N 51°24' E 002°37'0 0.1
2018-Jul-21 11:58N 51°24' E 002°37'0 0.1
2018-Jul-21 11:25N 51°24' E 002°37'0 0.1
2018-Jul-21 10:58N 51°24' E 002°37'0 0.1
2018-Jul-21 10:28N 51°24' E 002°37'0 0.1
2018-Jul-21 09:58N 51°24' E 002°37'0 0.1
2018-Jul-21 09:28N 51°24' E 002°37'0 0.0
2018-Jul-21 08:58N 51°24' E 002°37'0 0.0
2018-Jul-21 08:28N 51°24' E 002°37'0 0.0
2018-Jul-21 07:58N 51°24' E 002°37'0 0.0
2018-Jul-21 07:28N 51°24' E 002°37'0 0.0
2018-Jul-21 06:58N 51°24' E 002°37'0 0.1
2018-Jul-21 06:28N 51°24' E 002°37'0 0.1
2018-Jul-21 05:58N 51°24' E 002°37'0 0.1
2018-Jul-21 05:28N 51°24' E 002°37'0 0.1
2018-Jul-21 04:58N 51°24' E 002°37'0 0.1
2018-Jul-21 04:28N 51°24' E 002°37'0 0.1
2018-Jul-21 03:58N 51°24' E 002°37'0 0.0
2018-Jul-21 03:28N 51°24' E 002°37'0 0.0
2018-Jul-21 02:58N 51°24' E 002°37'0 0.2
2018-Jul-21 02:30N 51°24' E 002°37'3 6.0
2018-Jul-21 02:00N 51°22' E 002°33'5 9.9
2018-Jul-21 01:30N 51°21' E 002°25'3 6.3
2018-Jul-21 01:00N 51°19' E 002°21'3 6.6
2018-Jul-21 00:30N 51°19' E 002°16'4 7.6
2018-Jul-21 00:00N 51°19' E 002°10'4 7.8
2018-Jul-20 23:30N 51°21' E 002°04'510.0
2018-Jul-20 23:00N 51°24' E 001°58'611.7
2018-Jul-20 22:30N 51°29' E 001°52'5 9.9
2018-Jul-20 22:00N 51°33' E 001°49'4 7.2
2018-Jul-20 21:30N 51°36' E 001°47'3 6.9
2018-Jul-20 21:00N 51°40' E 001°45'3 6.8
2018-Jul-20 20:30N 51°43' E 001°45'3 6.9
2018-Jul-20 20:00N 51°47' E 001°44'3 6.9
2018-Jul-20 19:30N 51°50' E 001°42'4 8.0
2018-Jul-20 19:00N 51°52' E 001°37'5 9.0
2018-Jul-20 18:31N 51°56' E 001°33'816.8
2018-Jul-20 18:01N 51°56' E 001°19'2 4.1
2018-Jul-20 17:30N 51°58' E 001°18'0 0.0
2018-Jul-20 16:57N 51°58' E 001°18'0 0.0
2018-Jul-20 16:30N 51°58' E 001°18'0 0.0
2018-Jul-20 16:00N 51°58' E 001°18'0 0.0
2018-Jul-20 15:30N 51°58' E 001°18'0 0.0
2018-Jul-20 15:00N 51°58' E 001°18'0 0.0
2018-Jul-20 14:30N 51°58' E 001°18'0 0.0
2018-Jul-20 14:00N 51°58' E 001°18'0 0.0
2018-Jul-20 13:30N 51°58' E 001°18'0 0.0
2018-Jul-20 13:00N 51°58' E 001°18'0 0.0
2018-Jul-20 12:30N 51°58' E 001°18'0 0.0
2018-Jul-20 12:00N 51°58' E 001°18'0 0.0
2018-Jul-20 11:30N 51°58' E 001°18'0 0.0
2018-Jul-20 11:00N 51°58' E 001°18'0 0.0
2018-Jul-20 10:30N 51°58' E 001°18'0 0.0
2018-Jul-20 09:57N 51°58' E 001°18'0 0.0
2018-Jul-20 09:30N 51°58' E 001°18'0 0.0
2018-Jul-20 09:00N 51°58' E 001°18'0 0.0
2018-Jul-20 08:30N 51°58' E 001°18'0 0.0
2018-Jul-20 08:00N 51°58' E 001°18'0 0.0
2018-Jul-20 07:30N 51°58' E 001°18'0 0.0
2018-Jul-20 07:00N 51°58' E 001°18'0 0.0
2018-Jul-20 06:30N 51°58' E 001°18'0 0.0
2018-Jul-20 06:00N 51°58' E 001°18'0 0.0
2018-Jul-20 05:30N 51°58' E 001°18'0 0.0
2018-Jul-20 05:00N 51°58' E 001°18'0 0.0
2018-Jul-20 04:30N 51°58' E 001°18'0 0.0
2018-Jul-20 04:00N 51°58' E 001°18'0 0.0
2018-Jul-20 03:30N 51°58' E 001°18'0 0.0
2018-Jul-20 03:00N 51°58' E 001°18'0 0.0
2018-Jul-20 02:30N 51°58' E 001°18'0 0.0
2018-Jul-20 02:00N 51°58' E 001°18'0 0.0
2018-Jul-20 01:30N 51°58' E 001°18'0 0.1
2018-Jul-20 01:00N 51°58' E 001°18'2 3.6
2018-Jul-20 00:30N 51°56' E 001°19'613.0
2018-Jul-20 00:01N 51°56' E 001°29'713.1
2018-Jul-19 23:30N 51°52' E 001°37'713.0
2018-Jul-19 23:00N 51°51' E 001°47'918.2
2018-Jul-19 22:30N 51°52' E 002°02'918.9
2018-Jul-19 22:00N 51°57' E 002°15'1019.1
2018-Jul-19 21:30N 52°03' E 002°27'919.0
2018-Jul-19 21:00N 52°09' E 002°39'918.8
2018-Jul-19 20:30N 52°15' E 002°51'918.5
2018-Jul-19 20:00N 52°21' E 003°03'713.9
2018-Jul-19 19:30N 52°24' E 003°12'611.5
2018-Jul-19 19:00N 52°28' E 003°20'611.6
2018-Jul-19 18:30N 52°33' E 003°25'612.1
2018-Jul-19 18:00N 52°38' E 003°31'612.7
2018-Jul-19 17:30N 52°43' E 003°38'713.3
2018-Jul-19 17:00N 52°48' E 003°45'713.6
2018-Jul-19 16:30N 52°53' E 003°52'713.9
2018-Jul-19 16:00N 52°58' E 003°60'714.1
2018-Jul-19 15:30N 53°03' E 004°09'713.9
2018-Jul-19 14:59N 53°08' E 004°18'713.8
2018-Jul-19 14:30N 53°13' E 004°25'1313.5
2018-Jul-19 13:30N 53°25' E 004°34'612.2
2018-Jul-19 13:00N 53°30' E 004°41'612.3
2018-Jul-19 12:30N 53°32' E 004°50'612.1
2018-Jul-19 12:00N 53°34' E 004°59'611.8
2018-Jul-19 11:30N 53°36' E 005°09'611.7
2018-Jul-19 11:00N 53°38' E 005°18'611.7
2018-Jul-19 10:30N 53°40' E 005°27'611.9
2018-Jul-19 10:00N 53°42' E 005°37'612.0
2018-Jul-19 09:30N 53°44' E 005°47'713.7
2018-Jul-19 09:00N 53°46' E 005°58'816.6
2018-Jul-19 08:30N 53°48' E 006°11'1117.1
2018-Jul-19 07:52N 53°51' E 006°29'1417.2
2018-Jul-19 07:03N 53°55' E 006°52'117.2
2018-Jul-19 06:59N 53°55' E 006°54'817.0
2018-Jul-19 06:30N 53°57' E 007°07'816.8
2018-Jul-19 06:00N 53°58' E 007°21'816.3
2018-Jul-19 05:30N 53°59' E 007°35'713.8
2018-Jul-19 04:59N 53°55' E 007°44'613.4
2018-Jul-19 04:30N 53°52' E 007°54'916.9
2018-Jul-19 04:00N 53°49' E 008°07'817.0
2018-Jul-19 03:30N 53°43' E 008°18'815.8
2018-Jul-19 03:01N 53°38' E 008°28'4 8.2
2018-Jul-19 02:31N 53°35' E 008°32'0 0.0
2018-Jul-19 02:00N 53°35' E 008°32'0 0.0
2018-Jul-19 01:31N 53°35' E 008°32'0 0.0
2018-Jul-19 01:00N 53°35' E 008°32'0 0.0
2018-Jul-19 00:31N 53°35' E 008°32'0 0.0
2018-Jul-19 00:01N 53°35' E 008°32'0 0.0
2018-Jul-18 23:31N 53°35' E 008°32'0 0.0
2018-Jul-18 23:01N 53°35' E 008°32'0 0.0
2018-Jul-18 22:30N 53°35' E 008°32'0 0.0
2018-Jul-18 22:01N 53°35' E 008°32'0 0.0
2018-Jul-18 21:31N 53°35' E 008°32'0 0.0
2018-Jul-18 21:01N 53°35' E 008°32'0 0.0
2018-Jul-18 20:31N 53°35' E 008°32'0 0.0
2018-Jul-18 20:00N 53°35' E 008°32'0 0.0
2018-Jul-18 19:31N 53°35' E 008°32'0 0.0
2018-Jul-18 19:01N 53°35' E 008°32'0 0.0
2018-Jul-18 18:31N 53°35' E 008°32'0 0.0
2018-Jul-18 18:01N 53°35' E 008°32'0 0.0
2018-Jul-18 17:31N 53°35' E 008°32'0 0.0
2018-Jul-18 17:01N 53°35' E 008°32'0 0.0
2018-Jul-18 16:30N 53°35' E 008°32'0 0.0
2018-Jul-18 16:01N 53°35' E 008°32'0 0.0
2018-Jul-18 15:31N 53°35' E 008°32'0 0.0
2018-Jul-18 15:01N 53°35' E 008°32'0 0.0
2018-Jul-18 14:31N 53°35' E 008°32'0 0.0
2018-Jul-18 13:31N 53°35' E 008°32'0 0.0
2018-Jul-18 13:01N 53°35' E 008°32'0 0.0
2018-Jul-18 12:31N 53°35' E 008°32'0 0.0
2018-Jul-18 12:01N 53°35' E 008°32'0 0.0
2018-Jul-18 11:28N 53°35' E 008°32'0 0.0
2018-Jul-18 10:30N 53°35' E 008°32'0 0.0
2018-Jul-18 10:01N 53°35' E 008°32'0 0.0
2018-Jul-18 09:28N 53°35' E 008°32'0 0.0
2018-Jul-18 09:01N 53°35' E 008°32'0 0.0
2018-Jul-18 08:31N 53°35' E 008°32'0 0.0
2018-Jul-18 08:01N 53°35' E 008°32'0 0.0
2018-Jul-18 07:31N 53°35' E 008°32'0 0.0
2018-Jul-18 07:01N 53°35' E 008°32'0 0.0
2018-Jul-18 06:31N 53°35' E 008°32'0 0.0
2018-Jul-18 06:01N 53°35' E 008°32'0 0.0
2018-Jul-18 05:31N 53°35' E 008°32'0 0.0
2018-Jul-18 05:01N 53°35' E 008°32'1 1.8
2018-Jul-18 04:30N 53°35' E 008°31'5 9.9
2018-Jul-18 04:00N 53°39' E 008°25'714.3
2018-Jul-18 03:30N 53°43' E 008°16'715.0
2018-Jul-18 03:00N 53°49' E 008°07'816.3
2018-Jul-18 02:30N 53°52' E 007°54'5 9.0
2018-Jul-18 02:00N 53°54' E 007°48'1 2.4
2018-Jul-18 01:28N 53°55' E 007°49'0 0.0
2018-Jul-18 00:55N 53°55' E 007°49'0 0.1
2018-Jul-18 00:28N 53°55' E 007°49'0 0.0
2018-Jul-17 23:55N 53°55' E 007°49'0 0.1
2018-Jul-17 23:28N 53°55' E 007°49'0 0.0
2018-Jul-17 22:55N 53°55' E 007°49'0 0.0
2018-Jul-17 22:25N 53°55' E 007°49'0 0.0
2018-Jul-17 21:22N 53°55' E 007°49'0 0.0
2018-Jul-17 20:52N 53°55' E 007°49'0 0.0
2018-Jul-17 20:28N 53°55' E 007°49'0 0.1
2018-Jul-17 19:49N 53°55' E 007°49'0 0.3
2018-Jul-17 19:25N 53°55' E 007°49'0 0.1
2018-Jul-17 18:52N 53°55' E 007°49'0 0.0
2018-Jul-17 18:16N 53°55' E 007°49'0 0.1
2018-Jul-17 17:16N 53°55' E 007°49'0 0.1
2018-Jul-17 16:55N 53°55' E 007°49'0 0.1
2018-Jul-17 16:28N 53°55' E 007°49'0 0.0
2018-Jul-17 15:28N 53°55' E 007°49'0 0.0
2018-Jul-17 13:34N 53°55' E 007°49'0 0.0
2018-Jul-17 13:19N 53°55' E 007°49'0 0.0
2018-Jul-17 12:58N 53°55' E 007°49'0 0.0
2018-Jul-17 10:55N 53°55' E 007°49'0 0.0
2018-Jul-17 09:46N 53°55' E 007°49'0 0.1
2018-Jul-17 09:19N 53°55' E 007°49'0 0.3
2018-Jul-17 08:58N 53°55' E 007°49'0 0.2
2018-Jul-17 08:28N 53°55' E 007°49'0 0.0
2018-Jul-17 07:55N 53°55' E 007°49'0 0.0
2018-Jul-17 07:28N 53°55' E 007°49'0 0.1
2018-Jul-17 07:01N 53°55' E 007°49'3 6.0
2018-Jul-17 06:30N 53°56' E 007°44'713.6
2018-Jul-17 06:00N 53°55' E 007°33'612.9
2018-Jul-17 05:30N 53°53' E 007°22'5 9.8
2018-Jul-17 05:00N 53°52' E 007°14'5 9.8
2018-Jul-17 04:30N 53°51' E 007°06'5 9.5
2018-Jul-17 04:00N 53°50' E 006°58'5 9.7
2018-Jul-17 03:28N 53°49' E 006°49'5 9.6
2018-Jul-17 02:57N 53°47' E 006°41'4 9.6
2018-Jul-17 02:30N 53°46' E 006°34'4 9.0
2018-Jul-17 02:00N 53°45' E 006°26'4 8.8
2018-Jul-17 01:30N 53°44' E 006°19'5 9.1
2018-Jul-17 00:59N 53°43' E 006°12'8 9.4
2018-Jul-17 00:05N 53°40' E 005°58'13 9.7
2018-Jul-16 22:44N 53°36' E 005°37'3 9.9
2018-Jul-16 22:24N 53°35' E 005°32'4 9.9
2018-Jul-16 21:59N 53°34' E 005°26'510.0
2018-Jul-16 21:31N 53°32' E 005°18'5 9.9
2018-Jul-16 21:00N 53°30' E 005°10'510.1
2018-Jul-16 20:30N 53°28' E 005°02'510.1
2018-Jul-16 20:01N 53°27' E 004°54'510.0
2018-Jul-16 19:30N 53°25' E 004°46'5 9.7
2018-Jul-16 19:00N 53°22' E 004°41'510.5
2018-Jul-16 18:31N 53°17' E 004°37'611.2
2018-Jul-16 18:00N 53°12' E 004°32'612.4
2018-Jul-16 17:30N 53°06' E 004°28'611.9
2018-Jul-16 17:00N 53°01' E 004°23'611.7
2018-Jul-16 16:30N 52°56' E 004°18'611.4
2018-Jul-16 16:00N 52°51' E 004°14'511.0
2018-Jul-16 15:30N 52°47' E 004°08'611.3
2018-Jul-16 15:00N 52°43' E 004°02'612.7
2018-Jul-16 14:30N 52°38' E 003°54'712.6
2018-Jul-16 13:59N 52°33' E 003°47'612.3
2018-Jul-16 13:31N 52°29' E 003°40'612.2
2018-Jul-16 13:00N 52°25' E 003°33'612.0
2018-Jul-16 12:30N 52°21' E 003°26'611.8
2018-Jul-16 12:00N 52°16' E 003°20'611.6
2018-Jul-16 11:30N 52°12' E 003°13'612.5
2018-Jul-16 11:00N 52°08' E 003°06'612.3
2018-Jul-16 10:31N 52°03' E 002°59'612.4
2018-Jul-16 10:01N 51°59' E 002°52'612.4
2018-Jul-16 09:30N 51°54' E 002°46'612.7
2018-Jul-16 09:00N 51°49' E 002°40'613.0
2018-Jul-16 08:30N 51°43' E 002°34'612.9
2018-Jul-16 08:01N 51°39' E 002°27'713.3
2018-Jul-16 07:30N 51°34' E 002°20'713.8
2018-Jul-16 07:00N 51°28' E 002°13'713.6
2018-Jul-16 06:31N 51°22' E 002°08'714.3
2018-Jul-16 06:00N 51°15' E 002°06'815.5
2018-Jul-16 05:31N 51°10' E 001°56'815.8
2018-Jul-16 05:00N 51°07' E 001°45'815.2
2018-Jul-16 04:30N 51°02' E 001°36'918.4
2018-Jul-16 04:00N 50°54' E 001°29'1019.4
2018-Jul-16 03:31N 50°45' E 001°24'918.5
2018-Jul-16 03:01N 50°38' E 001°15'918.5
2018-Jul-16 02:31N 50°32' E 001°04'917.8
2018-Jul-16 02:00N 50°28' E 000°51'918.1
2018-Jul-16 01:30N 50°26' E 000°37'918.2
2018-Jul-16 01:01N 50°24' E 000°23'918.6
2018-Jul-16 00:31N 50°21' E 000°09'1019.1
2018-Jul-16 00:00N 50°19' W 000°05'1019.8
2018-Jul-15 23:30N 50°17' W 000°21'1020.6
2018-Jul-15 23:00N 50°14' W 000°36'1121.0
2018-Jul-15 22:30N 50°11' W 000°52'1121.2
2018-Jul-15 22:00N 50°08' W 001°07'1121.5
2018-Jul-15 21:30N 50°05' W 001°24'1121.7
2018-Jul-15 21:01N 50°02' W 001°40'1121.7
2018-Jul-15 20:31N 49°59' W 001°56'1121.0
2018-Jul-15 20:00N 49°57' W 002°12'1019.7
2018-Jul-15 19:30N 49°54' W 002°27'1019.1
2018-Jul-15 19:00N 49°52' W 002°41'918.6
2018-Jul-15 18:30N 49°50' W 002°55'918.2
2018-Jul-15 18:00N 49°49' W 003°09'917.8
2018-Jul-15 17:30N 49°47' W 003°23'917.4
2018-Jul-15 17:00N 49°47' W 003°36'917.3
2018-Jul-15 16:30N 49°46' W 003°50'917.0
2018-Jul-15 16:00N 49°45' W 004°03'816.8
2018-Jul-15 15:30N 49°44' W 004°16'816.7
2018-Jul-15 15:00N 49°43' W 004°28'816.6
2018-Jul-15 14:30N 49°43' W 004°41'2216.1
2018-Jul-15 13:08N 49°41' W 005°15'2216.1
2018-Jul-15 11:46N 49°39' W 005°49'416.6
2018-Jul-15 11:31N 49°38' W 005°56'816.6
2018-Jul-15 11:01N 49°38' W 006°09'816.7
2018-Jul-15 10:30N 49°38' W 006°22'1017.1
2018-Jul-15 09:56N 49°38' W 006°37'3517.6
2018-Jul-15 07:58N 49°41' W 007°30'  

Dump ship's entire track history